createdAt,value
2023-07-07T00:02:18.558Z,100507.22
2023-07-07T00:05:21.103Z,100506.16
2023-07-07T00:08:23.607Z,100507.97
2023-07-07T00:11:25.952Z,100504.53
2023-07-07T00:14:28.490Z,100492.66
2023-07-07T00:17:30.879Z,100500.03
2023-07-07T00:20:33.233Z,100501.91
2023-07-07T00:23:39.210Z,100497.97
2023-07-07T00:26:41.573Z,100500.34
2023-07-07T00:29:43.988Z,100500.34
2023-07-07T00:32:46.350Z,100502.72
2023-07-07T00:35:49.313Z,100505.13
2023-07-07T00:38:53.283Z,100506.16
2023-07-07T00:41:55.660Z,100519.63
2023-07-07T00:45:18.280Z,100517.22
2023-07-07T00:48:22.601Z,100519.31
2023-07-07T00:51:32.261Z,100510.09
2023-07-07T00:54:34.645Z,100508.75
2023-07-07T00:57:37.017Z,100519.81
2023-07-07T01:00:40.092Z,100506.06
2023-07-07T01:03:44.980Z,100496.25
2023-07-07T01:06:52.302Z,100512.41
2023-07-07T01:09:54.688Z,100504.19
2023-07-07T01:12:57.087Z,100509.78
2023-07-07T01:16:07.221Z,100510.56
2023-07-07T01:19:20.892Z,100511.88
2023-07-07T01:22:36.794Z,100521.38
2023-07-07T01:26:03.793Z,100525.78
2023-07-07T01:29:39.956Z,100519.47
2023-07-07T01:32:42.389Z,100516.19
2023-07-07T01:35:45.471Z,100522.00
2023-07-07T01:38:47.963Z,100528.09
2023-07-07T01:42:06.351Z,100524.09
2023-07-07T01:45:14.100Z,100532.50
2023-07-07T01:48:38.713Z,100537.19
2023-07-07T01:52:01.018Z,100535.56
2023-07-07T01:55:17.067Z,100541.34
2023-07-07T01:58:19.646Z,100546.31
2023-07-07T02:01:22.088Z,100547.16
2023-07-07T02:04:24.686Z,100556.31
2023-07-07T02:07:27.072Z,100555.78
2023-07-07T02:10:29.474Z,100555.56
2023-07-07T02:13:31.945Z,100556.31
2023-07-07T02:16:34.430Z,100551.31
2023-07-07T02:19:36.798Z,100553.59
2023-07-07T02:22:39.637Z,100561.22
2023-07-07T02:25:42.039Z,100569.38
2023-07-07T02:28:44.385Z,100571.47
2023-07-07T02:31:46.818Z,100573.84
2023-07-07T02:34:49.348Z,100577.13
2023-07-07T02:37:51.778Z,100580.00
2023-07-07T02:40:55.454Z,100571.44
2023-07-07T02:43:57.948Z,100566.97
2023-07-07T02:47:00.349Z,100554.69
2023-07-07T02:50:02.722Z,100574.13
2023-07-07T02:53:05.066Z,100576.81
2023-07-07T02:56:07.530Z,100566.19
2023-07-07T02:59:09.930Z,100569.28
2023-07-07T03:02:12.343Z,100570.28
2023-07-07T03:05:14.807Z,100580.91
2023-07-07T03:08:17.826Z,100575.09
2023-07-07T03:11:22.555Z,100577.47
2023-07-07T03:14:24.944Z,100598.53
2023-07-07T03:17:31.690Z,100590.78
2023-07-07T03:20:34.301Z,100592.16
2023-07-07T03:23:37.269Z,100595.22
2023-07-07T03:26:42.413Z,100597.78
2023-07-07T03:29:45.903Z,100602.59
2023-07-07T03:32:51.994Z,100599.53
2023-07-07T03:35:55.391Z,100602.75
2023-07-07T03:38:58.055Z,100594.84
2023-07-07T03:42:00.670Z,100600.41
2023-07-07T03:45:03.384Z,100586.41
2023-07-07T03:48:07.815Z,100593.16
2023-07-07T03:51:10.338Z,100605.66
2023-07-07T03:54:13.069Z,100609.53
2023-07-07T03:57:16.029Z,100617.72
2023-07-07T04:00:18.417Z,100623.38
2023-07-07T04:03:21.165Z,100626.00
2023-07-07T04:06:23.726Z,100628.69
2023-07-07T04:09:26.263Z,100626.56
2023-07-07T04:12:32.892Z,100632.81
2023-07-07T04:15:35.272Z,100642.28
2023-07-07T04:18:37.842Z,100636.28
2023-07-07T04:21:40.239Z,100639.22
2023-07-07T04:24:42.677Z,100649.28
2023-07-07T04:27:46.489Z,100652.97
2023-07-07T04:30:53.151Z,100652.97
2023-07-07T04:33:55.611Z,100658.59
2023-07-07T04:36:58.002Z,100653.63
2023-07-07T04:40:00.468Z,100660.03
2023-07-07T04:43:02.844Z,100667.91
2023-07-07T04:46:06.038Z,100667.91
2023-07-07T04:49:08.919Z,100671.47
2023-07-07T04:52:12.192Z,100679.00
2023-07-07T04:55:14.637Z,100683.97
2023-07-07T04:58:17.050Z,100682.69
2023-07-07T05:01:21.584Z,100683.41
2023-07-07T05:04:24.007Z,100676.28
2023-07-07T05:07:27.355Z,100682.22
2023-07-07T05:10:29.772Z,100685.06
2023-07-07T05:13:33.083Z,100690.06
2023-07-07T05:16:38.908Z,100672.84
2023-07-07T05:19:41.531Z,100694.19
2023-07-07T05:22:43.889Z,100701.97
2023-07-07T05:25:46.649Z,100702.75
2023-07-07T05:28:49.570Z,100698.31
2023-07-07T05:31:51.988Z,100700.88
2023-07-07T05:34:54.553Z,100701.50
2023-07-07T05:37:56.976Z,100694.78
2023-07-07T05:40:59.982Z,100701.00
2023-07-07T05:44:02.667Z,100695.78
2023-07-07T05:47:05.448Z,100703.00
2023-07-07T05:50:08.863Z,100707.78
2023-07-07T05:53:11.533Z,100708.38
2023-07-07T05:56:22.109Z,100704.94
2023-07-07T05:59:24.506Z,100711.88
2023-07-07T06:02:26.938Z,100717.41
2023-07-07T06:05:29.830Z,100707.66
2023-07-07T06:08:32.459Z,100705.09
2023-07-07T06:11:34.824Z,100704.56
2023-07-07T06:14:37.205Z,100707.78
2023-07-07T06:17:39.781Z,100717.06
2023-07-07T06:20:42.963Z,100687.63
2023-07-07T06:23:45.370Z,100708.31
2023-07-07T06:26:47.813Z,100707.78
2023-07-07T06:29:50.241Z,100720.47
2023-07-07T06:32:52.663Z,100721.78
2023-07-07T06:35:55.146Z,100723.63
2023-07-07T06:38:57.530Z,100723.38
2023-07-07T06:42:01.214Z,100725.25
2023-07-07T06:45:09.596Z,100737.91
2023-07-07T06:48:12.041Z,100732.38
2023-07-07T06:51:14.541Z,100732.81
2023-07-07T06:54:16.942Z,100741.09
2023-07-07T06:57:19.343Z,100741.31
2023-07-07T07:00:22.529Z,100745.00
2023-07-07T07:03:24.853Z,100755.38
2023-07-07T07:06:28.130Z,100752.72
2023-07-07T07:09:30.580Z,100751.13
2023-07-07T07:12:33.030Z,100746.59
2023-07-07T07:15:35.478Z,100755.34
2023-07-07T07:18:37.839Z,100751.94
2023-07-07T07:21:40.200Z,100753.28
2023-07-07T07:24:43.185Z,100754.31
2023-07-07T07:27:45.589Z,100762.06
2023-07-07T07:30:48.120Z,100767.91
2023-07-07T07:33:52.642Z,100759.16
2023-07-07T07:36:55.630Z,100766.03
2023-07-07T07:39:57.963Z,100766.59
2023-07-07T07:43:00.300Z,100775.34
2023-07-07T07:46:02.727Z,100779.28
2023-07-07T07:49:05.125Z,100778.50
2023-07-07T07:52:07.911Z,100780.63
2023-07-07T07:55:10.438Z,100787.22
2023-07-07T07:58:13.089Z,100779.03
2023-07-07T08:01:15.505Z,100779.28
2023-07-07T08:04:17.949Z,100797.00
2023-07-07T08:07:20.276Z,100804.97
2023-07-07T08:10:22.623Z,100808.94
2023-07-07T08:13:35.240Z,100813.19
2023-07-07T08:16:42.348Z,100815.53
2023-07-07T08:19:45.483Z,100805.50
2023-07-07T08:22:47.933Z,100810.81
2023-07-07T08:26:25.784Z,100815.59
2023-07-07T08:32:22.719Z,100809.31
2023-07-07T08:35:25.173Z,100811.91
2023-07-07T08:38:27.539Z,100817.22
2023-07-07T08:41:29.975Z,100816.41
2023-07-07T08:44:34.146Z,100815.59
2023-07-07T08:47:58.169Z,100818.16
2023-07-07T08:51:03.046Z,100808.91
2023-07-07T08:54:14.480Z,100825.75
2023-07-07T08:57:18.635Z,100830.44
2023-07-07T09:00:46.151Z,100827.97
2023-07-07T09:03:51.665Z,100829.59
2023-07-07T09:06:54.033Z,100818.50
2023-07-07T09:10:28.255Z,100827.34
2023-07-07T09:13:32.554Z,100827.25
2023-07-07T09:16:36.283Z,100829.25
2023-07-07T09:19:39.437Z,100820.31
2023-07-07T09:22:55.628Z,100823.19
2023-07-07T09:26:22.564Z,100807.94
2023-07-07T09:29:27.664Z,100810.22
2023-07-07T09:32:30.099Z,100813.38
2023-07-07T09:35:36.383Z,100815.56
2023-07-07T09:38:41.601Z,100811.03
2023-07-07T09:42:01.960Z,100812.72
2023-07-07T09:45:10.239Z,100819.81
2023-07-07T09:48:18.580Z,100814.75
2023-07-07T09:51:42.959Z,100812.16
2023-07-07T09:54:45.368Z,100812.88
2023-07-07T09:57:59.110Z,100819.13
2023-07-07T10:01:03.289Z,100815.50
2023-07-07T10:04:13.028Z,100824.47
2023-07-07T10:07:15.825Z,100828.56
2023-07-07T10:10:18.210Z,100829.59
2023-07-07T10:13:20.922Z,100833.91
2023-07-07T10:16:33.629Z,100831.88
2023-07-07T10:20:02.059Z,100832.97
2023-07-07T10:23:04.536Z,100841.91
2023-07-07T10:26:06.899Z,100838.88
2023-07-07T10:29:11.484Z,100831.81
2023-07-07T10:32:18.161Z,100835.34
2023-07-07T10:35:21.259Z,100837.09
2023-07-07T10:38:24.378Z,100840.31
2023-07-07T10:41:27.836Z,100846.00
2023-07-07T10:44:30.232Z,100829.69
2023-07-07T10:47:34.273Z,100833.84
2023-07-07T10:50:37.995Z,100842.31
2023-07-07T10:54:02.308Z,100834.72
2023-07-07T10:57:27.633Z,100837.47
2023-07-07T11:00:38.477Z,100838.94
2023-07-07T11:03:49.497Z,100851.81
2023-07-07T11:07:29.620Z,100840.53
2023-07-07T11:10:50.383Z,100835.00
2023-07-07T11:14:04.955Z,100841.03
2023-07-07T11:17:29.737Z,100837.47
2023-07-07T11:20:35.150Z,100831.47
2023-07-07T11:23:56.689Z,100833.34
2023-07-07T11:27:28.875Z,100822.91
2023-07-07T11:30:37.628Z,100814.81
2023-07-07T11:33:58.565Z,100815.16
2023-07-07T11:37:11.376Z,100812.09
2023-07-07T11:40:33.595Z,100810.59
2023-07-07T11:44:14.241Z,100806.59
2023-07-07T11:47:35.083Z,100805.94
2023-07-07T11:50:41.506Z,100812.13
2023-07-07T11:54:07.577Z,100812.59
2023-07-07T11:57:12.949Z,100807.25
2023-07-07T12:00:36.010Z,100797.94
2023-07-07T12:03:43.877Z,100799.09
2023-07-07T12:06:53.441Z,100803.84
2023-07-07T12:10:01.612Z,100803.81
2023-07-07T12:13:06.878Z,100795.84
2023-07-07T12:16:14.849Z,100797.44
2023-07-07T12:19:32.333Z,100791.47
2023-07-07T12:22:36.560Z,100790.69
2023-07-07T12:25:38.928Z,100784.38
2023-07-07T12:28:43.920Z,100787.28
2023-07-07T12:31:48.393Z,100785.75
2023-07-07T12:35:17.716Z,100775.53
2023-07-07T12:38:28.970Z,100769.78
2023-07-07T12:41:31.414Z,100762.13
2023-07-07T12:44:34.276Z,100766.69
2023-07-07T12:47:42.704Z,100758.16
2023-07-07T12:50:45.170Z,100750.78
2023-07-07T12:53:54.927Z,100776.41
2023-07-07T12:57:12.336Z,100772.38
2023-07-07T13:00:45.577Z,100770.63
2023-07-07T13:04:08.680Z,100771.03
2023-07-07T13:07:20.246Z,100772.59
2023-07-07T13:10:50.738Z,100766.63
2023-07-07T13:13:53.098Z,100822.91
2023-07-07T13:16:59.857Z,100804.03
2023-07-07T13:20:03.259Z,100804.63
2023-07-07T13:23:30.000Z,100804.06
2023-07-07T13:26:32.430Z,100800.88
2023-07-07T13:29:39.083Z,100797.06
2023-07-07T13:32:42.722Z,100792.63
2023-07-07T13:35:53.595Z,100787.09
2023-07-07T13:38:56.045Z,100789.75
2023-07-07T13:41:59.344Z,100789.75
2023-07-07T13:45:09.129Z,100782.78
2023-07-07T13:48:21.832Z,100783.94
2023-07-07T13:51:29.678Z,100774.25
2023-07-07T13:54:32.025Z,100776.44
2023-07-07T13:57:34.690Z,100786.94
2023-07-07T14:00:38.124Z,100783.13
2023-07-07T14:03:40.538Z,100780.19
2023-07-07T14:06:45.945Z,100783.16
2023-07-07T14:09:49.620Z,100775.31
2023-07-07T14:12:52.044Z,100781.38
2023-07-07T14:15:58.109Z,100783.41
2023-07-07T14:19:22.069Z,100790.53
2023-07-07T14:22:24.504Z,100782.72
2023-07-07T14:25:26.895Z,100793.53
2023-07-07T14:28:36.856Z,100786.38
2023-07-07T14:31:40.024Z,100787.59
2023-07-07T14:34:47.625Z,100787.91
2023-07-07T14:37:58.523Z,100777.47
2023-07-07T14:41:12.440Z,100780.44
2023-07-07T14:44:41.813Z,100778.84
2023-07-07T14:47:44.295Z,100790.06
2023-07-07T14:50:46.746Z,100780.19
2023-07-07T14:54:02.098Z,100779.69
2023-07-07T14:57:08.457Z,100780.94
2023-07-07T15:00:28.128Z,100780.63
2023-07-07T15:03:31.912Z,100772.44
2023-07-07T15:06:35.852Z,100777.88
2023-07-07T15:09:38.255Z,100781.66
2023-07-07T15:12:40.622Z,100774.78
2023-07-07T15:15:43.065Z,100775.13
2023-07-07T15:18:45.792Z,100775.13
2023-07-07T15:21:48.330Z,100767.31
2023-07-07T15:24:52.144Z,100765.25
2023-07-07T15:27:54.513Z,100763.09
2023-07-07T15:30:56.854Z,100759.53
2023-07-07T15:33:59.257Z,100759.66
2023-07-07T15:37:01.617Z,100760.00
2023-07-07T15:40:12.238Z,100765.81
2023-07-07T15:43:14.614Z,100759.94
2023-07-07T15:46:27.195Z,100770.03
2023-07-07T15:49:29.564Z,100769.78
2023-07-07T15:52:32.086Z,100760.50
2023-07-07T15:55:34.616Z,100764.19
2023-07-07T15:58:37.071Z,100774.72
2023-07-07T16:01:39.457Z,100769.41
2023-07-07T16:04:41.928Z,100762.31
2023-07-07T16:07:44.370Z,100763.91
2023-07-07T16:10:46.782Z,100771.19
2023-07-07T16:13:53.109Z,100772.59
2023-07-07T16:16:55.485Z,100774.47
2023-07-07T16:20:01.971Z,100767.84
2023-07-07T16:23:04.391Z,100770.19
2023-07-07T16:26:12.517Z,100773.72
2023-07-07T16:29:18.474Z,100780.03
2023-07-07T16:32:20.802Z,100778.75
2023-07-07T16:35:23.576Z,100789.13
2023-07-07T16:38:25.918Z,100781.44
2023-07-07T16:41:28.842Z,100784.81
2023-07-07T16:44:31.175Z,100785.13
2023-07-07T16:47:33.663Z,100783.81
2023-07-07T16:50:36.085Z,100779.59
2023-07-07T16:53:40.412Z,100789.19
2023-07-07T16:56:43.538Z,100795.09
2023-07-07T16:59:46.052Z,100798.09
2023-07-07T17:02:48.724Z,100791.53
2023-07-07T17:05:51.169Z,100800.06
2023-07-07T17:08:55.799Z,100803.63
2023-07-07T17:11:58.212Z,100797.88
2023-07-07T17:15:02.865Z,100790.19
2023-07-07T17:18:09.535Z,100803.94
2023-07-07T17:21:12.028Z,100800.81
2023-07-07T17:24:14.468Z,100810.34
2023-07-07T17:27:16.836Z,100811.16
2023-07-07T17:30:24.373Z,100812.47
2023-07-07T17:33:27.065Z,100812.78
2023-07-07T17:36:30.601Z,100813.06
2023-07-07T17:39:33.210Z,100821.03
2023-07-07T17:42:35.608Z,100820.50
2023-07-07T17:45:37.975Z,100820.78
2023-07-07T17:48:40.369Z,100826.88
2023-07-07T17:51:42.936Z,100825.06
2023-07-07T17:54:45.301Z,100829.53
2023-07-07T17:57:47.856Z,100834.59
2023-07-07T18:00:51.167Z,100833.78
2023-07-07T18:03:53.724Z,100834.09
2023-07-07T18:06:56.156Z,100842.09
2023-07-07T18:09:58.554Z,100839.19
2023-07-07T18:13:00.973Z,100833.09
2023-07-07T18:16:03.375Z,100833.91
2023-07-07T18:19:41.491Z,100839.25
2023-07-07T18:22:32.208Z,100840.03
2023-07-07T18:25:34.640Z,100849.31
2023-07-07T18:28:37.001Z,100846.41
2023-07-07T18:31:40.634Z,100848.78
2023-07-07T18:34:45.268Z,100855.41
2023-07-07T18:37:47.723Z,100857.81
2023-07-07T18:40:50.396Z,100850.91
2023-07-07T18:43:52.889Z,100855.91
2023-07-07T18:46:55.340Z,100864.38
2023-07-07T18:49:57.734Z,100859.88
2023-07-07T18:53:00.255Z,100858.28
2023-07-07T18:56:02.620Z,100866.47
2023-07-07T18:59:18.284Z,100875.22
2023-07-07T19:02:20.698Z,100868.84
2023-07-07T19:05:23.101Z,100874.59
2023-07-07T19:08:25.594Z,100870.31
2023-07-07T19:11:27.959Z,100870.78
2023-07-07T19:14:30.354Z,100875.97
2023-07-07T19:17:32.760Z,100880.34
2023-07-07T19:20:35.235Z,100882.50
2023-07-07T19:23:37.597Z,100892.72
2023-07-07T19:26:44.663Z,100890.38
2023-07-07T19:29:47.086Z,100888.41
2023-07-07T19:32:49.526Z,100891.63
2023-07-07T19:35:56.052Z,100891.88
2023-07-07T19:38:58.562Z,100895.25
2023-07-07T19:42:00.922Z,100899.00
2023-07-07T19:45:03.435Z,100895.25
2023-07-07T19:48:23.833Z,100892.03
2023-07-07T19:51:29.039Z,100894.13
2023-07-07T19:54:31.526Z,100890.41
2023-07-07T19:57:33.952Z,100889.09
2023-07-07T20:00:36.308Z,100899.16
2023-07-07T20:03:39.700Z,100890.97
2023-07-07T20:06:44.651Z,100892.09
2023-07-07T20:09:47.099Z,100894.25
2023-07-07T20:12:50.222Z,100894.63
2023-07-07T20:15:52.646Z,100892.66
2023-07-07T20:18:56.140Z,100891.44
2023-07-07T20:21:58.559Z,100892.66
2023-07-07T20:25:00.944Z,100891.47
2023-07-07T20:28:03.358Z,100904.00
2023-07-07T20:31:05.787Z,100906.56
2023-07-07T20:34:08.625Z,100909.13
2023-07-07T20:37:12.743Z,100909.75
2023-07-07T20:40:23.396Z,100909.53
2023-07-07T20:43:25.748Z,100914.50
2023-07-07T20:46:30.384Z,100911.06
2023-07-07T20:49:32.872Z,100929.97
2023-07-07T20:52:35.237Z,100927.78
2023-07-07T20:55:37.688Z,100937.88
2023-07-07T20:58:40.244Z,100933.53
2023-07-07T21:01:42.668Z,100939.34
2023-07-07T21:04:45.047Z,100936.94
2023-07-07T21:07:47.448Z,100941.75
2023-07-07T21:10:49.976Z,100937.03
2023-07-07T21:13:52.435Z,100931.69
2023-07-07T21:16:54.796Z,100931.94
2023-07-07T21:19:57.200Z,100935.59
2023-07-07T21:23:07.488Z,100931.03
2023-07-07T21:26:21.966Z,100935.72
2023-07-07T21:29:24.352Z,100936.84
2023-07-07T21:32:26.781Z,100947.22
2023-07-07T21:35:29.360Z,100944.59
2023-07-07T21:38:31.765Z,100943.22
2023-07-07T21:41:42.478Z,100947.91
2023-07-07T21:44:47.227Z,100949.31
2023-07-07T21:47:57.319Z,100941.31
2023-07-07T21:51:00.038Z,100943.88
2023-07-07T21:54:02.640Z,100950.72
2023-07-07T21:57:06.242Z,100940.09
2023-07-07T22:00:28.353Z,100948.56
2023-07-07T22:03:30.775Z,100956.13
2023-07-07T22:06:33.117Z,100940.09
2023-07-07T22:09:35.493Z,100952.22
2023-07-07T22:12:37.818Z,100961.63
2023-07-07T22:15:40.336Z,100962.09
2023-07-07T22:18:54.170Z,100966.28
2023-07-07T22:21:58.186Z,100973.38
2023-07-07T22:25:00.565Z,100970.88
2023-07-07T22:28:03.627Z,100965.97
2023-07-07T22:31:07.708Z,100962.88
2023-07-07T22:34:10.178Z,100953.03
2023-07-07T22:37:13.590Z,100955.41
2023-07-07T22:40:22.549Z,100957.38
2023-07-07T22:43:25.400Z,100952.22
2023-07-07T22:46:29.965Z,100955.78
2023-07-07T22:49:32.397Z,100954.09
2023-07-07T22:52:34.788Z,100941.16
2023-07-07T22:55:38.424Z,100951.56
2023-07-07T22:58:40.800Z,100948.72
2023-07-07T23:01:43.231Z,100946.53
2023-07-07T23:04:45.628Z,100951.69
2023-07-07T23:07:48.049Z,100941.03
2023-07-07T23:10:52.037Z,100937.41
2023-07-07T23:13:54.485Z,100944.03
2023-07-07T23:16:57.382Z,100937.28
2023-07-07T23:20:00.723Z,100945.84
2023-07-07T23:23:05.270Z,100942.53
2023-07-07T23:26:20.624Z,100940.16
2023-07-07T23:29:23.271Z,100939.78
2023-07-07T23:32:25.618Z,100938.53
2023-07-07T23:35:27.989Z,100931.78
2023-07-07T23:38:30.364Z,100935.31
2023-07-07T23:41:32.801Z,100932.44
2023-07-07T23:44:35.174Z,100933.47
2023-07-07T23:47:38.750Z,100928.69
2023-07-07T23:51:01.822Z,100925.81
2023-07-07T23:54:04.560Z,100931.41
2023-07-07T23:57:13.448Z,100934.63
